Time;durP1;ratioP1;P1;durP2;ratioP2;P2;SDS_P1;SDS_P2;PMS_P1;PMS_P2;Temp;Humidity;BMP_temperature;BMP_pressure;BME280_temperature;BME280_humidity;BME280_pressure;Samples;Min_cycle;Max_cycle;Signal;HPM_P1;HPM_P2
2021/05/06 00:32:37;;;;;;;1.77;1.60;;;9.50;89.60;;;;;;10540223;28;20269;-82
2021/05/06 00:37:47;;;;;;;2.10;2.00;;;9.40;87.70;;;;;;10522191;28;20195;-83
2021/05/06 00:43:13;;;;;;;2.37;2.20;;;9.30;88.70;;;;;;10541053;28;20231;-83
2021/05/06 00:54:22;;;;;;;2.27;2.00;;;9.20;88.00;;;;;;10481230;28;20717;-80
2021/05/06 01:04:51;;;;;;;2.17;2.07;;;9.20;88.20;;;;;;10509874;28;20319;-81
2021/05/06 01:10:03;;;;;;;2.13;2.00;;;9.20;87.80;;;;;;10529472;28;20214;-81
2021/05/06 01:15:09;;;;;;;2.10;2.00;;;9.20;86.80;;;;;;10524660;28;20239;-82
2021/05/06 01:20:13;;;;;;;1.93;1.80;;;9.20;86.60;;;;;;10522971;28;20203;-81
2021/05/06 01:25:17;;;;;;;2.10;2.00;;;9.10;86.60;;;;;;10552180;28;20216;-81
2021/05/06 01:30:27;;;;;;;2.53;2.07;;;9.10;87.30;;;;;;10550937;28;20195;-78
2021/05/06 01:35:34;;;;;;;2.67;2.23;;;9.10;88.30;;;;;;10526770;28;20219;-80
2021/05/06 01:46:22;;;;;;;3.67;2.63;;;9.20;87.00;;;;;;10538158;28;20222;-77
2021/05/06 02:02:02;;;;;;;2.33;2.13;;;9.30;86.70;;;;;;10505950;28;20298;-81
2021/05/06 02:07:05;;;;;;;3.40;2.30;;;9.40;86.10;;;;;;10518451;28;20231;-81
2021/05/06 02:12:19;;;;;;;2.43;2.10;;;9.30;85.60;;;;;;10544769;28;20224;-80
2021/05/06 02:17:22;;;;;;;2.97;2.50;;;9.40;85.50;;;;;;10545947;28;20196;-82
2021/05/06 02:22:26;;;;;;;3.83;2.80;;;9.40;85.70;;;;;;10528206;28;20707;-82
2021/05/06 02:27:30;;;;;;;2.87;2.33;;;9.40;85.90;;;;;;10545214;28;20230;-81
2021/05/06 02:32:32;;;;;;;3.33;2.70;;;9.50;84.10;;;;;;10528436;28;20719;-82
2021/05/06 02:37:34;;;;;;;2.83;2.57;;;9.50;83.80;;;;;;10546978;28;20207;-81
2021/05/06 02:42:37;;;;;;;3.40;2.40;;;9.50;83.90;;;;;;10547457;28;20302;-81
2021/05/06 02:47:38;;;;;;;4.63;3.20;;;9.50;83.60;;;;;;10529694;28;20281;-82
2021/05/06 02:52:45;;;;;;;3.40;2.50;;;9.50;84.30;;;;;;10530173;28;20249;-81
2021/05/06 02:57:52;;;;;;;3.80;3.40;;;9.50;84.90;;;;;;10548380;28;20195;-83
2021/05/06 03:02:54;;;;;;;4.20;3.03;;;9.60;84.10;;;;;;10548208;28;20259;-82
2021/05/06 03:08:04;;;;;;;3.57;2.80;;;9.50;85.60;;;;;;10548957;28;20219;-81
2021/05/06 03:23:46;;;;;;;2.93;2.70;;;9.40;90.60;;;;;;10518401;28;20220;-79
2021/05/06 03:28:54;;;;;;;6.00;2.97;;;9.40;91.00;;;;;;10514350;28;20223;-79
2021/05/06 03:44:57;;;;;;;3.57;3.27;;;8.80;94.00;;;;;;10533434;28;20231;-80
2021/05/06 04:16:46;;;;;;;3.00;2.80;;;8.00;99.90;;;;;;10535870;28;20284;-80
2021/05/06 04:22:11;;;;;;;3.10;2.90;;;8.10;99.90;;;;;;10542033;28;20209;-80
2021/05/06 04:27:16;;;;;;;3.20;3.00;;;8.00;99.90;;;;;;10535386;28;20219;-80
2021/05/06 04:37:39;;;;;;;3.93;3.20;;;7.90;99.90;;;;;;10531762;28;20207;-80
2021/05/06 04:43:24;;;;;;;4.57;3.30;;;8.00;99.90;;;;;;10513129;28;20234;-80
2021/05/06 04:54:14;;;;;;;8.40;4.13;;;8.20;99.90;;;;;;10456373;28;20228;-80
2021/05/06 05:04:37;;;;;;;2.90;2.70;;;8.60;99.90;;;;;;10492004;28;20215;-79
2021/05/06 05:17:34;;;;;;;3.23;2.70;;;8.70;99.60;;;;;;10532984;28;20294;-81
2021/05/06 05:20:38;;;;;;;4.00;3.00;;;8.80;99.30;;;;;;10551300;28;20241;-78
2021/05/06 05:25:42;;;;;;;3.10;2.90;;;8.90;99.20;;;;;;10555152;28;20334;-80
2021/05/06 05:30:43;;;;;;;4.70;3.43;;;9.00;98.70;;;;;;10533908;28;20245;-81
2021/05/06 05:35:54;;;;;;;4.63;2.90;;;9.10;98.80;;;;;;10545204;28;20323;-79
2021/05/06 05:41:04;;;;;;;2.87;2.67;;;9.10;98.20;;;;;;10518128;28;20204;-81
2021/05/06 05:56:45;;;;;;;3.23;2.70;;;9.50;98.10;;;;;;10506873;28;20196;-81
2021/05/06 06:01:47;;;;;;;3.27;2.80;;;9.60;97.50;;;;;;10548546;28;20260;-81
2021/05/06 06:06:49;;;;;;;2.97;2.60;;;9.60;97.20;;;;;;10548629;28;20752;-81
2021/05/06 06:11:51;;;;;;;2.63;2.20;;;9.70;97.40;;;;;;10548421;28;20200;-81
2021/05/06 06:16:52;;;;;;;2.83;2.60;;;9.70;96.00;;;;;;10548353;28;20207;-81
2021/05/06 06:22:01;;;;;;;7.57;2.60;;;9.70;96.50;;;;;;10550844;28;20210;-81
2021/05/06 06:27:03;;;;;;;4.00;2.60;;;9.70;96.10;;;;;;10548621;28;20211;-79
2021/05/06 06:32:08;;;;;;;3.17;2.67;;;9.80;96.20;;;;;;10545478;28;20211;-79
2021/05/06 06:37:10;;;;;;;4.20;2.70;;;9.80;96.00;;;;;;10547304;28;20236;-81
2021/05/06 06:42:12;;;;;;;4.93;2.97;;;9.70;97.30;;;;;;10548274;28;20372;-81
2021/05/06 06:47:14;;;;;;;3.83;2.80;;;9.60;97.80;;;;;;10551728;28;20212;-81
2021/05/06 06:52:16;;;;;;;3.37;2.83;;;9.60;97.90;;;;;;10539304;28;20683;-81
2021/05/06 06:57:18;;;;;;;7.40;3.10;;;9.70;97.10;;;;;;10547942;28;20199;-80
2021/05/06 07:02:19;;;;;;;3.37;3.07;;;9.70;97.70;;;;;;10545421;28;20336;-81
2021/05/06 07:07:22;;;;;;;3.17;2.90;;;9.70;97.30;;;;;;10542444;28;20227;-81
2021/05/06 07:12:24;;;;;;;3.90;3.17;;;9.80;97.10;;;;;;10546115;28;20219;-80
2021/05/06 07:17:25;;;;;;;3.30;3.00;;;9.90;96.80;;;;;;10526433;28;20191;-81
2021/05/06 07:22:28;;;;;;;4.47;2.70;;;10.00;96.20;;;;;;10532828;28;20219;-81
2021/05/06 07:27:29;;;;;;;3.50;3.20;;;10.10;95.00;;;;;;10539229;28;20224;-82
2021/05/06 07:32:31;;;;;;;3.33;3.03;;;10.20;95.80;;;;;;10498982;28;20253;-82
2021/05/06 07:37:34;;;;;;;3.50;3.13;;;10.40;96.30;;;;;;10504262;28;20197;-82
2021/05/06 07:42:36;;;;;;;3.00;2.80;;;10.50;96.00;;;;;;10513651;28;20738;-82
2021/05/06 07:47:37;;;;;;;2.60;2.40;;;10.70;95.00;;;;;;10545713;28;20216;-81
2021/05/06 07:52:42;;;;;;;5.23;3.50;;;11.00;95.00;;;;;;10543528;28;20939;-81
2021/05/06 07:57:44;;;;;;;3.10;2.80;;;11.20;95.10;;;;;;10527349;28;20272;-82
2021/05/06 08:02:48;;;;;;;3.10;2.90;;;11.40;93.70;;;;;;10528789;28;20277;-81
2021/05/06 08:07:51;;;;;;;5.10;2.90;;;11.50;94.00;;;;;;10545670;28;20226;-82
2021/05/06 08:12:53;;;;;;;3.97;2.70;;;11.70;93.20;;;;;;10544095;28;20707;-82
2021/05/06 08:17:55;;;;;;;3.90;2.50;;;11.80;93.00;;;;;;10544173;28;20192;-81
2021/05/06 08:22:58;;;;;;;5.83;2.93;;;11.80;92.30;;;;;;10545411;28;20227;-82
2021/05/06 08:27:59;;;;;;;2.70;2.33;;;11.80;91.90;;;;;;10548356;28;20226;-81
2021/05/06 08:33:01;;;;;;;5.17;2.70;;;11.80;91.50;;;;;;10515741;28;20266;-82
2021/05/06 08:38:04;;;;;;;3.33;3.03;;;11.80;92.40;;;;;;10541790;28;20196;-82
2021/05/06 08:43:10;;;;;;;6.20;2.70;;;11.90;93.20;;;;;;10547013;28;20223;-82
2021/05/06 08:48:15;;;;;;;3.90;3.50;;;11.90;91.80;;;;;;10547444;28;20254;-82
2021/05/06 08:53:19;;;;;;;4.00;3.17;;;11.90;92.00;;;;;;10544202;28;20216;-82
2021/05/06 08:58:21;;;;;;;2.60;2.40;;;11.90;92.10;;;;;;10537232;28;20200;-82
2021/05/06 09:03:23;;;;;;;3.90;3.50;;;11.90;91.90;;;;;;10503094;28;20242;-81
2021/05/06 09:08:35;;;;;;;4.97;3.40;;;12.00;91.10;;;;;;10504449;28;20220;-81
2021/05/06 09:13:37;;;;;;;4.23;3.57;;;12.00;91.40;;;;;;10545062;28;20224;-80
2021/05/06 09:18:40;;;;;;;5.10;3.40;;;11.90;92.30;;;;;;10539361;28;20222;-81
2021/05/06 09:23:43;;;;;;;5.63;3.10;;;11.90;92.20;;;;;;10547000;28;20216;-82
2021/05/06 09:28:47;;;;;;;3.13;2.90;;;11.90;92.30;;;;;;10528899;28;20224;-80
2021/05/06 09:33:49;;;;;;;9.27;3.03;;;11.90;92.50;;;;;;10564879;28;20208;-81
2021/05/06 09:38:53;;;;;;;5.50;3.77;;;11.80;92.40;;;;;;10563394;28;20199;-81
2021/05/06 09:44:07;;;;;;;5.93;3.33;;;11.80;92.70;;;;;;10539113;22;20587;-77
2021/05/06 09:49:10;;;;;;;5.27;3.27;;;11.80;92.20;;;;;;10455717;28;20237;-77
2021/05/06 09:54:15;;;;;;;3.47;3.07;;;11.80;92.50;;;;;;10456848;28;20304;-77
2021/05/06 09:59:23;;;;;;;3.90;3.33;;;11.90;92.10;;;;;;10452923;28;20205;-77
2021/05/06 10:04:27;;;;;;;5.93;3.00;;;12.00;92.20;;;;;;10455616;28;20217;-77
2021/05/06 10:09:30;;;;;;;4.00;2.87;;;12.00;92.50;;;;;;10455440;28;20732;-77
2021/05/06 10:14:32;;;;;;;11.97;2.97;;;12.10;93.40;;;;;;10456333;28;20243;-77
2021/05/06 10:19:34;;;;;;;4.13;3.13;;;12.10;92.40;;;;;;10455134;28;20650;-77
2021/05/06 10:24:37;;;;;;;6.00;2.90;;;12.10;92.30;;;;;;10450438;28;20227;-77
2021/05/06 10:29:40;;;;;;;5.77;3.03;;;12.10;92.50;;;;;;10437753;28;20242;-77
2021/05/06 10:34:43;;;;;;;3.93;2.60;;;12.10;92.90;;;;;;10437531;28;20225;-77
2021/05/06 10:39:47;;;;;;;3.73;2.23;;;12.00;93.20;;;;;;10453691;28;20669;-77
2021/05/06 10:44:48;;;;;;;2.80;2.33;;;12.00;93.60;;;;;;10454768;28;20220;-77
2021/05/06 10:50:09;;;;;;;4.73;2.90;;;11.90;93.50;;;;;;10453420;28;20217;-77
2021/05/06 10:55:13;;;;;;;2.20;2.10;;;11.80;93.60;;;;;;10453020;28;20221;-77
2021/05/06 11:00:27;;;;;;;2.33;2.23;;;11.80;93.80;;;;;;10453318;28;20291;-77
2021/05/06 11:05:29;;;;;;;2.60;2.07;;;11.80;93.30;;;;;;10437342;28;20280;-79
2021/05/06 11:10:32;;;;;;;1.93;1.83;;;11.80;94.00;;;;;;10455760;28;20258;-77
2021/05/06 11:15:35;;;;;;;3.03;1.97;;;11.80;94.30;;;;;;10431110;28;20251;-77
2021/05/06 11:20:52;;;;;;;3.33;1.97;;;11.90;94.30;;;;;;10420804;28;20208;-77
2021/05/06 11:26:17;;;;;;;2.77;2.57;;;12.00;94.00;;;;;;10400163;28;20247;-77
2021/05/06 11:31:49;;;;;;;2.27;2.07;;;12.10;94.90;;;;;;10402975;28;20201;-77
2021/05/06 11:36:51;;;;;;;3.63;2.73;;;12.20;93.60;;;;;;10417815;28;20217;-77
2021/05/06 11:41:54;;;;;;;3.10;2.17;;;12.30;93.40;;;;;;10421321;28;20664;-78
2021/05/06 11:46:57;;;;;;;2.70;1.90;;;12.30;92.80;;;;;;10401370;28;20291;-77
2021/05/06 11:51:59;;;;;;;2.07;1.60;;;12.30;93.10;;;;;;10422614;28;20201;-77
2021/05/06 11:57:02;;;;;;;2.60;1.57;;;12.30;92.40;;;;;;10422083;28;20597;-78
2021/05/06 12:02:06;;;;;;;1.43;1.33;;;12.30;91.90;;;;;;10408460;28;20252;-77
2021/05/06 12:07:12;;;;;;;1.40;1.30;;;12.30;91.60;;;;;;10397690;28;20217;-77
2021/05/06 12:12:22;;;;;;;1.50;1.40;;;12.30;91.30;;;;;;10413352;28;20337;-77
2021/05/06 12:17:24;;;;;;;1.83;1.37;;;12.20;90.10;;;;;;10430155;28;20190;-77
2021/05/06 12:22:25;;;;;;;1.50;1.40;;;12.10;91.40;;;;;;10424005;28;20287;-77
2021/05/06 12:27:29;;;;;;;1.73;1.63;;;12.10;91.60;;;;;;10419429;28;20592;-77
2021/05/06 12:32:33;;;;;;;1.47;1.37;;;12.20;91.40;;;;;;10416810;28;20275;-77
2021/05/06 12:37:36;;;;;;;1.93;1.83;;;12.30;91.30;;;;;;10419450;28;20193;-77
2021/05/06 12:42:39;;;;;;;1.63;1.40;;;12.40;92.50;;;;;;10419933;28;20244;-77
2021/05/06 12:47:43;;;;;;;2.47;1.90;;;12.40;92.70;;;;;;10408796;28;20217;-77
2021/05/06 12:52:46;;;;;;;1.37;1.27;;;12.20;94.90;;;;;;10425684;28;20246;-77
2021/05/06 12:58:06;;;;;;;2.40;2.10;;;12.00;95.60;;;;;;10408760;28;20201;-77
2021/05/06 13:03:09;;;;;;;1.83;1.73;;;11.90;97.70;;;;;;10430887;28;20222;-77
2021/05/06 13:08:11;;;;;;;2.10;2.00;;;11.80;97.70;;;;;;10437017;28;20222;-77
2021/05/06 13:13:34;;;;;;;2.57;2.37;;;11.60;99.00;;;;;;10426761;28;20222;-77
2021/05/06 13:18:37;;;;;;;2.23;2.13;;;11.40;99.80;;;;;;10435665;28;20904;-76
2021/05/06 13:23:41;;;;;;;2.57;2.37;;;11.30;99.90;;;;;;10413407;28;20305;-76
2021/05/06 13:28:45;;;;;;;5.60;3.30;;;11.20;99.90;;;;;;10427575;28;20225;-76
2021/05/06 13:33:49;;;;;;;3.83;3.53;;;11.00;99.90;;;;;;10456223;28;20217;-77
2021/05/06 13:38:56;;;;;;;3.40;3.20;;;10.90;99.90;;;;;;10451181;28;20193;-77
2021/05/06 13:44:00;;;;;;;4.90;4.70;;;10.80;99.90;;;;;;10457508;28;20716;-77
2021/05/06 13:49:01;;;;;;;4.87;4.67;;;10.70;99.90;;;;;;10455417;28;20225;-77
2021/05/06 13:54:04;;;;;;;5.10;4.70;;;10.70;99.90;;;;;;10455778;28;20217;-76
2021/05/06 13:59:06;;;;;;;3.57;3.37;;;10.70;99.90;;;;;;10448741;28;20572;-77
2021/05/06 14:04:08;;;;;;;5.00;4.70;;;10.60;99.90;;;;;;10456602;28;20607;-77
2021/05/06 14:09:15;;;;;;;5.23;4.93;;;10.60;99.90;;;;;;10456719;28;20209;-76
2021/05/06 14:14:18;;;;;;;4.83;4.60;;;10.60;99.90;;;;;;10455794;28;20709;-77
2021/05/06 14:19:20;;;;;;;4.93;4.63;;;10.70;99.90;;;;;;10456152;28;20208;-76
2021/05/06 14:24:22;;;;;;;5.37;4.97;;;10.70;99.90;;;;;;10456541;28;20221;-77
2021/05/06 14:29:25;;;;;;;6.10;5.57;;;10.90;99.90;;;;;;10423555;28;20229;-76
2021/05/06 14:34:27;;;;;;;5.13;4.93;;;10.90;99.90;;;;;;10424210;28;20252;-76
2021/05/06 14:39:29;;;;;;;5.37;5.07;;;11.00;99.90;;;;;;10452897;28;20224;-77
2021/05/06 14:44:31;;;;;;;5.57;5.27;;;10.90;99.90;;;;;;10442025;28;20712;-77
2021/05/06 14:49:33;;;;;;;3.63;3.33;;;10.90;99.90;;;;;;10437647;28;20228;-77
2021/05/06 14:54:35;;;;;;;6.50;6.20;;;10.60;99.90;;;;;;10454963;28;20228;-77
2021/05/06 14:59:37;;;;;;;3.30;3.10;;;10.50;99.90;;;;;;10433573;28;20257;-77
2021/05/06 15:04:39;;;;;;;6.20;6.00;;;10.50;99.90;;;;;;10432206;28;20214;-77
2021/05/06 15:09:41;;;;;;;4.10;3.80;;;10.50;99.90;;;;;;10449789;28;20300;-77
2021/05/06 15:14:43;;;;;;;6.83;6.53;;;10.50;99.90;;;;;;10454442;28;20232;-77
2021/05/06 15:19:45;;;;;;;6.27;5.77;;;10.50;99.90;;;;;;10448262;28;20220;-77
2021/05/06 15:24:47;;;;;;;7.23;6.90;;;10.60;99.90;;;;;;10450688;28;20307;-77
2021/05/06 15:29:49;;;;;;;4.03;3.87;;;10.70;99.90;;;;;;10429487;28;20357;-77
2021/05/06 15:34:53;;;;;;;6.90;6.60;;;10.70;99.90;;;;;;10446957;28;20221;-75
2021/05/06 15:39:55;;;;;;;6.57;6.30;;;10.70;99.90;;;;;;10452225;28;20284;-75
2021/05/06 15:44:58;;;;;;;6.73;6.43;;;10.70;99.90;;;;;;10480230;23;20233;-78
2021/05/06 15:50:03;;;;;;;7.73;7.13;;;10.60;99.90;;;;;;10443499;28;20604;-78
2021/05/06 15:55:07;;;;;;;6.17;5.87;;;10.60;99.90;;;;;;10437118;28;20276;-80
2021/05/06 16:00:12;;;;;;;6.97;6.53;;;10.70;99.90;;;;;;10400472;28;20482;-78
2021/05/06 16:05:21;;;;;;;7.53;7.20;;;10.60;99.90;;;;;;10403078;28;20226;-79
2021/05/06 16:10:25;;;;;;;7.73;7.23;;;10.60;99.90;;;;;;10424425;28;20213;-79
2021/05/06 16:15:28;;;;;;;7.17;6.73;;;10.60;99.90;;;;;;10399341;28;20229;-80
2021/05/06 16:20:32;;;;;;;6.67;6.37;;;10.50;99.90;;;;;;10401140;28;20194;-79
2021/05/06 16:25:34;;;;;;;7.47;7.17;;;10.40;99.90;;;;;;10419510;28;20474;-78
2021/05/06 16:30:37;;;;;;;6.97;6.67;;;10.40;99.90;;;;;;10398328;28;20344;-80
2021/05/06 16:35:47;;;;;;;6.40;6.10;;;10.50;99.90;;;;;;10407457;28;20217;-80
2021/05/06 16:40:52;;;;;;;5.73;5.53;;;10.50;99.90;;;;;;10398125;28;20197;-79
2021/05/06 16:45:55;;;;;;;5.90;5.50;;;10.40;99.90;;;;;;10398002;28;20671;-78
2021/05/06 16:50:57;;;;;;;6.30;5.70;;;10.40;99.90;;;;;;10405594;28;20267;-80
2021/05/06 16:55:59;;;;;;;6.37;6.07;;;10.50;99.90;;;;;;10416539;28;20236;-78
2021/05/06 17:01:01;;;;;;;6.00;5.80;;;10.70;99.90;;;;;;10418030;28;20650;-78
2021/05/06 17:06:03;;;;;;;4.77;4.57;;;10.80;99.90;;;;;;10382147;28;20257;-78
2021/05/06 17:11:05;;;;;;;5.50;5.30;;;10.80;99.90;;;;;;10416566;28;20205;-80
2021/05/06 17:16:08;;;;;;;6.50;6.00;;;10.90;99.90;;;;;;10400669;28;20625;-79
2021/05/06 17:21:13;;;;;;;7.47;7.07;;;10.90;99.90;;;;;;10390285;28;20221;-80
2021/05/06 17:26:14;;;;;;;5.33;5.03;;;10.90;99.90;;;;;;10423081;28;20282;-80
2021/05/06 17:31:18;;;;;;;7.07;6.50;;;10.80;99.90;;;;;;10411757;28;20575;-80
2021/05/06 17:36:25;;;;;;;6.50;6.10;;;10.80;99.90;;;;;;10423010;28;20219;-79
2021/05/06 17:41:27;;;;;;;7.90;7.40;;;10.80;99.90;;;;;;10408595;28;20626;-79
2021/05/06 17:46:33;;;;;;;6.40;5.90;;;10.80;99.90;;;;;;10386163;28;20259;-80
2021/05/06 17:51:36;;;;;;;8.93;8.13;;;10.80;99.90;;;;;;10396370;28;20202;-78
2021/05/06 17:56:37;;;;;;;6.47;5.87;;;10.70;99.90;;;;;;10405696;28;20221;-79
2021/05/06 18:01:40;;;;;;;9.57;8.87;;;10.70;99.90;;;;;;10422824;28;20202;-79
2021/05/06 18:06:41;;;;;;;6.10;5.63;;;10.70;99.90;;;;;;10406041;28;20226;-80
2021/05/06 18:11:50;;;;;;;6.73;6.43;;;10.60;99.90;;;;;;10420502;28;20201;-80
2021/05/06 18:16:55;;;;;;;4.87;4.57;;;10.50;99.90;;;;;;10407425;28;20218;-79
2021/05/06 18:21:57;;;;;;;5.70;5.50;;;10.50;99.90;;;;;;10426951;28;20202;-80
2021/05/06 18:26:59;;;;;;;7.30;6.97;;;10.40;99.90;;;;;;10438780;28;20650;-80
2021/05/06 18:32:03;;;;;;;5.70;5.50;;;10.40;99.90;;;;;;10426292;28;20198;-79
2021/05/06 18:37:04;;;;;;;5.33;5.13;;;10.30;99.90;;;;;;10422941;28;20220;-78
2021/05/06 18:42:06;;;;;;;5.70;5.50;;;10.20;99.90;;;;;;10443067;28;20206;-79
2021/05/06 18:47:09;;;;;;;3.70;3.50;;;10.20;99.90;;;;;;10423615;28;20244;-79
2021/05/06 18:52:10;;;;;;;4.60;4.40;;;10.10;99.90;;;;;;10423373;28;20190;-79
2021/05/06 18:57:12;;;;;;;5.50;5.30;;;10.10;99.90;;;;;;10419576;28;20214;-79
2021/05/06 19:02:15;;;;;;;4.97;4.77;;;10.10;99.90;;;;;;10424300;28;20213;-80
2021/05/06 19:07:16;;;;;;;4.93;4.73;;;10.10;99.90;;;;;;10393823;28;20233;-79
2021/05/06 19:12:18;;;;;;;5.03;4.83;;;10.10;99.90;;;;;;10397844;28;20206;-79
2021/05/06 19:17:21;;;;;;;5.10;4.90;;;10.10;99.90;;;;;;10399012;28;20214;-78
2021/05/06 19:22:22;;;;;;;3.23;3.03;;;10.20;99.90;;;;;;10402597;28;20201;-78
2021/05/06 19:27:24;;;;;;;5.53;5.33;;;10.20;99.90;;;;;;10416618;28;20323;-78
2021/05/06 19:32:27;;;;;;;5.07;4.87;;;10.30;99.90;;;;;;10384618;28;20202;-79
2021/05/06 19:37:29;;;;;;;6.07;5.77;;;10.40;99.90;;;;;;10398338;28;20204;-80
2021/05/06 19:42:35;;;;;;;4.93;4.70;;;10.40;99.90;;;;;;10399962;28;20213;-79
2021/05/06 19:47:38;;;;;;;5.97;5.73;;;10.50;99.90;;;;;;10404179;28;20268;-80
2021/05/06 19:52:43;;;;;;;5.33;5.13;;;10.60;99.90;;;;;;10373611;28;20201;-80
2021/05/06 19:57:44;;;;;;;5.63;5.17;;;10.60;99.90;;;;;;10391753;28;20232;-80
2021/05/06 20:02:47;;;;;;;5.00;4.80;;;10.70;99.90;;;;;;10398744;28;20312;-79
2021/05/06 20:07:50;;;;;;;5.30;5.00;;;10.70;99.90;;;;;;10399594;28;20626;-80
2021/05/06 20:12:52;;;;;;;5.33;5.13;;;10.80;99.90;;;;;;10423980;28;20222;-79
2021/05/06 20:17:55;;;;;;;4.60;4.40;;;10.80;99.90;;;;;;10449466;28;20210;-80
2021/05/06 20:22:58;;;;;;;5.07;4.77;;;10.90;99.90;;;;;;10419320;28;20218;-80
2021/05/06 20:27:59;;;;;;;5.50;5.20;;;11.00;99.90;;;;;;10413125;28;20233;-78
2021/05/06 20:33:02;;;;;;;5.53;5.23;;;11.00;99.90;;;;;;10431730;28;20264;-79
2021/05/06 20:38:03;;;;;;;4.57;4.37;;;11.00;99.90;;;;;;10431273;28;20213;-79
2021/05/06 20:43:09;;;;;;;5.40;5.10;;;11.00;99.90;;;;;;10432051;28;20621;-80
2021/05/06 20:48:14;;;;;;;5.27;4.97;;;11.00;99.90;;;;;;10413756;28;20222;-79
2021/05/06 20:53:16;;;;;;;4.50;4.30;;;11.10;99.90;;;;;;10419072;28;20220;-79
2021/05/06 20:58:18;;;;;;;4.80;4.60;;;11.10;99.90;;;;;;10432035;28;20262;-80
2021/05/06 21:03:20;;;;;;;5.30;5.00;;;11.10;99.90;;;;;;10413629;28;20225;-79
2021/05/06 21:08:22;;;;;;;4.87;4.67;;;11.10;99.90;;;;;;10438296;28;20221;-80
2021/05/06 21:13:23;;;;;;;5.27;4.90;;;11.20;99.90;;;;;;10440489;28;20308;-80
2021/05/06 21:18:26;;;;;;;5.40;5.10;;;11.20;99.90;;;;;;10440537;28;20198;-80
2021/05/06 21:23:29;;;;;;;4.93;4.73;;;11.30;99.90;;;;;;10423940;28;20225;-80
2021/05/06 21:28:31;;;;;;;5.77;5.40;;;11.30;99.90;;;;;;10444146;28;20210;-81
2021/05/06 21:33:34;;;;;;;4.90;4.60;;;11.30;99.90;;;;;;10429189;28;20229;-80
2021/05/06 21:38:35;;;;;;;5.33;4.93;;;11.40;99.90;;;;;;10428128;28;20224;-80
2021/05/06 21:43:37;;;;;;;4.97;4.67;;;11.40;99.90;;;;;;10426839;28;20233;-80
2021/05/06 21:48:40;;;;;;;4.60;4.50;;;11.40;99.90;;;;;;10381537;28;20218;-80
2021/05/06 21:53:41;;;;;;;3.77;3.67;;;11.40;99.90;;;;;;10404419;28;20223;-79
2021/05/06 21:58:44;;;;;;;3.97;3.77;;;11.30;99.90;;;;;;10407717;28;20628;-79
2021/05/06 22:03:46;;;;;;;3.60;3.50;;;11.30;99.90;;;;;;10424550;28;20264;-79
2021/05/06 22:08:48;;;;;;;4.77;4.47;;;11.30;99.90;;;;;;10427101;28;20222;-78
2021/05/06 22:13:50;;;;;;;3.40;3.30;;;11.20;99.90;;;;;;10389591;28;20229;-79
2021/05/06 22:18:52;;;;;;;3.90;3.70;;;11.20;99.90;;;;;;10408937;28;20205;-80
2021/05/06 22:23:57;;;;;;;3.47;3.37;;;11.00;99.90;;;;;;10407667;28;20705;-79
2021/05/06 22:28:59;;;;;;;3.20;3.10;;;10.90;99.90;;;;;;10412077;28;20272;-78
2021/05/06 22:34:01;;;;;;;3.10;3.00;;;10.90;99.90;;;;;;10414641;28;20225;-80
2021/05/06 22:39:06;;;;;;;3.00;2.90;;;10.90;99.90;;;;;;10418190;28;20678;-78
2021/05/06 22:44:07;;;;;;;3.07;2.97;;;10.90;99.90;;;;;;10439307;28;20238;-78
2021/05/06 22:49:10;;;;;;;3.10;3.00;;;10.90;99.90;;;;;;10435323;28;20233;-81
2021/05/06 22:54:11;;;;;;;2.37;2.27;;;10.90;99.90;;;;;;10442285;28;20225;-79
2021/05/06 22:59:13;;;;;;;2.10;2.00;;;10.90;99.90;;;;;;10442842;28;20189;-80
2021/05/06 23:04:16;;;;;;;1.50;1.50;;;10.90;99.90;;;;;;10412945;28;20234;-80
2021/05/06 23:09:17;;;;;;;1.73;1.63;;;10.90;99.90;;;;;;10416650;28;20268;-80
2021/05/06 23:14:19;;;;;;;1.80;1.70;;;10.90;99.90;;;;;;10419285;28;20268;-80
2021/05/06 23:19:21;;;;;;;1.80;1.70;;;10.90;99.90;;;;;;10390816;28;20205;-79
2021/05/06 23:24:26;;;;;;;1.83;1.83;;;10.90;99.90;;;;;;10405648;28;20242;-79
2021/05/06 23:29:28;;;;;;;1.60;1.60;;;10.90;99.90;;;;;;10420999;28;20305;-80
2021/05/06 23:34:30;;;;;;;1.50;1.40;;;10.90;99.90;;;;;;10440992;28;20728;-80
2021/05/06 23:39:32;;;;;;;1.60;1.50;;;10.90;99.90;;;;;;10420269;28;20558;-79
2021/05/06 23:44:34;;;;;;;1.97;1.47;;;10.90;99.90;;;;;;10421699;28;20225;-80
2021/05/06 23:49:36;;;;;;;1.60;1.60;;;11.00;99.90;;;;;;10417725;28;20633;-80
2021/05/06 23:54:38;;;;;;;1.80;1.70;;;11.00;99.90;;;;;;10423807;28;20709;-80
2021/05/06 23:59:39;;;;;;;1.80;1.70;;;11.00;99.90;;;;;;10441614;28;20201;-80
